Terminal Aerodrome Forecast
Issued by NWS

Home | Current Version | Previous Version | Text Only | Print | Product List | Glossary On
Versions: 1 2 3 4 5 6 7 8 9 10 11 12 13 14 15 16 17
163
FTUS45 KRIW 192324
TAFCOD
TAF
KCOD 192324Z 2000/2024 24012G20KT P6SM SCT150 BKN200 WS015/25055KT
     FM200900 22020G30KT P6SM BKN150 OVC200
     FM201500 23025G40KT P6SM OVC150
      AMD LTD TO CLD VIS AND WIND=

USA.gov is the U.S. government's official web portal to all federal, state and local government web resources and services.